createdAt,value
2023-03-20T00:00:41.314Z,28.73
2023-03-20T00:03:55.967Z,29.78
2023-03-20T00:07:10.092Z,30.13
2023-03-20T00:10:23.978Z,30.23
2023-03-20T00:13:36.082Z,30.75
2023-03-20T00:16:51.107Z,29.65
2023-03-20T00:20:03.376Z,31.63
2023-03-20T00:23:15.392Z,32.30
2023-03-20T00:26:30.105Z,30.98
2023-03-20T00:29:42.671Z,31.48
2023-03-20T00:32:55.244Z,32.63
2023-03-20T00:36:07.733Z,32.10
2023-03-20T00:39:19.984Z,31.90
2023-03-20T00:42:32.239Z,32.13
2023-03-20T00:45:44.403Z,31.70
2023-03-20T00:48:57.034Z,30.88
2023-03-20T00:52:12.902Z,31.05
2023-03-20T00:55:28.192Z,31.25
2023-03-20T00:58:40.416Z,29.75
2023-03-20T01:01:52.959Z,30.03
2023-03-20T01:05:05.917Z,28.48
2023-03-20T01:08:27.619Z,27.53
2023-03-20T01:11:40.291Z,28.05
2023-03-20T01:14:56.801Z,27.73
2023-03-20T01:18:09.095Z,27.03
2023-03-20T01:21:21.492Z,28.15
2023-03-20T01:24:33.543Z,28.73
2023-03-20T01:27:48.474Z,29.75
2023-03-20T01:31:00.801Z,28.80
2023-03-20T01:34:16.566Z,28.78
2023-03-20T01:37:33.381Z,27.90
2023-03-20T01:40:55.476Z,29.85
2023-03-20T01:44:16.302Z,28.53
2023-03-20T01:47:30.608Z,28.65
2023-03-20T01:50:45.352Z,30.00
2023-03-20T01:54:03.208Z,29.35
2023-03-20T01:57:21.697Z,29.93
2023-03-20T02:00:34.486Z,28.85
2023-03-20T02:03:52.003Z,29.43
2023-03-20T02:07:06.586Z,27.50
2023-03-20T02:10:25.229Z,30.83
2023-03-20T02:13:45.693Z,29.35
2023-03-20T02:16:59.172Z,29.15
2023-03-20T02:20:22.332Z,29.25
2023-03-20T02:24:21.426Z,30.48
2023-03-20T02:27:43.140Z,32.38
2023-03-20T02:31:21.507Z,32.18
2023-03-20T02:35:31.649Z,31.73
2023-03-20T02:39:06.714Z,32.35
2023-03-20T02:42:26.712Z,31.75
2023-03-20T02:45:45.922Z,31.90
2023-03-20T02:49:05.118Z,30.80
2023-03-20T02:52:23.062Z,31.25
2023-03-20T02:55:42.026Z,31.25
2023-03-20T02:59:00.678Z,31.85
2023-03-20T03:02:17.390Z,31.95
2023-03-20T03:05:35.226Z,31.30
2023-03-20T03:08:52.616Z,30.60
2023-03-20T03:12:09.683Z,30.85
2023-03-20T03:15:27.735Z,29.23
2023-03-20T03:18:44.129Z,30.78
2023-03-20T03:21:56.913Z,30.03
2023-03-20T03:25:11.236Z,29.88
2023-03-20T03:28:30.509Z,29.80
2023-03-20T03:31:44.015Z,29.30
2023-03-20T03:34:56.741Z,27.53
2023-03-20T03:38:14.504Z,28.48
2023-03-20T03:41:33.439Z,28.85
2023-03-20T03:44:53.216Z,28.93
2023-03-20T03:48:10.706Z,29.55
2023-03-20T03:51:27.666Z,28.53
2023-03-20T03:54:48.762Z,27.28
2023-03-20T03:58:16.291Z,26.40
2023-03-20T04:01:35.036Z,27.55
2023-03-20T04:04:52.509Z,27.63
2023-03-20T04:08:08.561Z,25.90
2023-03-20T04:11:25.320Z,25.20
2023-03-20T04:14:37.623Z,24.88
2023-03-20T04:17:50.383Z,26.68
2023-03-20T04:21:03.315Z,26.43
2023-03-20T04:24:16.150Z,25.38
2023-03-20T04:27:28.864Z,24.85
2023-03-20T04:30:41.478Z,24.13
2023-03-20T04:33:53.667Z,24.88
2023-03-20T04:37:14.173Z,24.43
2023-03-20T04:40:31.699Z,24.15
2023-03-20T04:43:44.551Z,24.53
2023-03-20T04:46:56.690Z,23.20
2023-03-20T04:50:11.897Z,23.10
2023-03-20T04:53:27.077Z,21.88
2023-03-20T04:56:39.426Z,22.80
2023-03-20T04:59:53.912Z,21.93
2023-03-20T05:03:06.378Z,21.05
2023-03-20T05:06:18.974Z,22.25
2023-03-20T05:09:32.134Z,22.68
2023-03-20T05:12:47.978Z,21.28
2023-03-20T05:16:18.924Z,21.13
2023-03-20T05:19:33.094Z,19.98
2023-03-20T05:22:47.832Z,19.40
2023-03-20T05:26:18.336Z,16.40
2023-03-20T05:29:41.556Z,15.45
2023-03-20T05:32:58.172Z,16.43
2023-03-20T05:36:16.341Z,15.83
2023-03-20T05:39:42.808Z,17.30
2023-03-20T05:42:59.978Z,15.45
2023-03-20T05:46:14.914Z,16.18
2023-03-20T05:49:34.976Z,16.08
2023-03-20T05:52:58.432Z,16.68
2023-03-20T05:56:16.735Z,16.25
2023-03-20T05:59:30.954Z,16.45
2023-03-20T06:02:48.477Z,17.08
2023-03-20T06:06:13.518Z,17.08
2023-03-20T06:09:26.575Z,17.10
2023-03-20T06:12:39.030Z,15.93
2023-03-20T06:15:51.772Z,16.35
2023-03-20T06:19:04.162Z,16.95
2023-03-20T06:22:16.735Z,16.93
2023-03-20T06:25:28.937Z,16.43
2023-03-20T06:28:41.023Z,16.25
2023-03-20T06:31:53.700Z,16.18
2023-03-20T06:35:11.940Z,17.15
2023-03-20T06:38:25.071Z,16.80
2023-03-20T06:41:37.957Z,18.63
2023-03-20T06:44:52.034Z,16.63
2023-03-20T06:48:06.370Z,18.15
2023-03-20T06:51:18.579Z,18.78
2023-03-20T06:54:32.983Z,17.65
2023-03-20T06:57:46.002Z,17.58
2023-03-20T07:01:00.205Z,17.35
2023-03-20T07:04:12.964Z,17.35
2023-03-20T07:07:26.920Z,18.88
2023-03-20T07:10:39.410Z,20.03
2023-03-20T07:13:52.044Z,20.15
2023-03-20T07:17:06.540Z,20.63
2023-03-20T07:20:20.770Z,18.18
2023-03-20T07:23:34.683Z,19.05
2023-03-20T07:26:47.286Z,16.90
2023-03-20T07:29:59.844Z,16.10
2023-03-20T07:33:12.179Z,16.15
2023-03-20T07:36:25.477Z,16.28
2023-03-20T07:39:37.752Z,16.40
2023-03-20T07:43:10.472Z,18.48
2023-03-20T07:46:41.201Z,16.78
2023-03-20T07:49:53.695Z,16.68
2023-03-20T07:53:06.066Z,16.93
2023-03-20T07:56:19.079Z,17.05
2023-03-20T07:59:31.143Z,15.23
2023-03-20T08:02:43.693Z,15.63
2023-03-20T08:05:56.269Z,15.55
2023-03-20T08:09:09.283Z,15.65
2023-03-20T08:12:21.601Z,16.23
2023-03-20T08:15:33.858Z,15.50
2023-03-20T08:18:46.720Z,16.43
2023-03-20T08:21:58.865Z,16.63
2023-03-20T08:25:13.156Z,16.10
2023-03-20T08:28:44.110Z,16.03
2023-03-20T08:31:40.747Z,16.20
2023-03-20T08:34:52.804Z,16.98
2023-03-20T08:38:05.114Z,16.98
2023-03-20T08:41:17.204Z,17.28
2023-03-20T08:44:29.462Z,17.75
2023-03-20T08:47:41.724Z,17.20
2023-03-20T08:50:53.931Z,16.63
2023-03-20T08:54:06.076Z,17.10
2023-03-20T08:57:20.792Z,17.68
2023-03-20T09:00:33.400Z,18.18
2023-03-20T09:03:45.696Z,17.45
2023-03-20T09:07:01.005Z,18.05
2023-03-20T09:10:16.094Z,19.00
2023-03-20T09:13:28.402Z,18.18
2023-03-20T09:16:40.574Z,19.03
2023-03-20T09:19:52.829Z,17.85
2023-03-20T09:23:05.506Z,20.13
2023-03-20T09:26:33.676Z,18.55
2023-03-20T09:29:46.755Z,17.83
2023-03-20T09:32:59.462Z,16.15
2023-03-20T09:36:31.073Z,16.03
2023-03-20T09:39:44.130Z,13.18
2023-03-20T09:43:04.344Z,14.45
2023-03-20T09:46:27.898Z,13.45
2023-03-20T09:49:52.860Z,14.93
2023-03-20T09:53:14.767Z,15.08
2023-03-20T09:56:31.822Z,23.98
2023-03-20T09:59:44.453Z,15.13
2023-03-20T10:03:01.084Z,16.78
2023-03-20T10:06:18.069Z,16.58
2023-03-20T10:13:02.425Z,19.95
2023-03-20T10:16:21.753Z,16.90
2023-03-20T10:19:37.197Z,15.73
2023-03-20T10:22:53.129Z,15.48
2023-03-20T10:26:10.503Z,15.15
2023-03-20T10:29:31.795Z,13.00
2023-03-20T10:32:49.405Z,14.30
2023-03-20T10:36:12.447Z,14.10
2023-03-20T10:39:34.032Z,15.20
2023-03-20T10:42:51.448Z,24.00
2023-03-20T10:46:10.534Z,16.60
2023-03-20T10:49:29.135Z,15.43
2023-03-20T10:52:45.060Z,15.15
2023-03-20T10:55:59.986Z,15.60
2023-03-20T10:59:18.481Z,14.83
2023-03-20T11:02:34.737Z,13.80
2023-03-20T11:06:02.208Z,14.40
2023-03-20T11:09:02.045Z,16.73
2023-03-20T11:12:23.978Z,14.10
2023-03-20T11:15:39.581Z,14.30
2023-03-20T11:18:53.959Z,14.73
2023-03-20T11:22:13.022Z,15.00
2023-03-20T11:25:39.569Z,14.65
2023-03-20T11:28:59.503Z,15.10
2023-03-20T11:32:24.428Z,14.58
2023-03-20T11:35:37.871Z,14.48
2023-03-20T11:38:54.320Z,14.75
2023-03-20T11:42:08.415Z,14.63
2023-03-20T11:45:25.847Z,16.00
2023-03-20T11:48:47.010Z,16.33
2023-03-20T11:52:00.700Z,17.50
2023-03-20T11:55:28.587Z,15.85
2023-03-20T11:58:43.436Z,16.88
2023-03-20T12:01:59.138Z,18.85
2023-03-20T12:05:33.522Z,18.03
2023-03-20T12:08:50.175Z,16.75
2023-03-20T12:12:05.763Z,17.18
2023-03-20T12:15:26.494Z,13.60
2023-03-20T12:18:43.083Z,14.58
2023-03-20T12:22:03.224Z,14.95
2023-03-20T12:25:25.823Z,14.73
2023-03-20T12:28:42.892Z,14.55
2023-03-20T12:32:00.541Z,14.95
2023-03-20T12:35:17.356Z,14.93
2023-03-20T12:41:57.230Z,14.28
2023-03-20T12:45:16.034Z,13.78
2023-03-20T12:48:49.814Z,12.63
2023-03-20T12:52:11.600Z,12.58
2023-03-20T12:55:47.834Z,11.35
2023-03-20T12:59:05.064Z,11.00
2023-03-20T13:02:30.784Z,11.45
2023-03-20T13:05:53.916Z,10.68
2023-03-20T13:09:26.631Z,10.25
2023-03-20T13:12:51.750Z,11.13
2023-03-20T13:16:16.121Z,10.00
2023-03-20T13:19:36.547Z,12.60
2023-03-20T13:22:59.249Z,12.20
2023-03-20T13:26:32.669Z,11.65
2023-03-20T13:29:52.696Z,10.68
2023-03-20T13:33:12.944Z,10.58
2023-03-20T13:36:40.746Z,10.53
2023-03-20T13:40:02.218Z,9.68
2023-03-20T13:43:25.663Z,9.58
2023-03-20T13:46:43.826Z,10.73
2023-03-20T13:50:03.796Z,11.33
2023-03-20T13:53:26.158Z,12.73
2023-03-20T13:56:47.580Z,12.50
2023-03-20T14:00:12.593Z,14.00
2023-03-20T14:03:32.147Z,14.03
2023-03-20T14:06:59.176Z,13.98
2023-03-20T14:10:46.786Z,12.63
2023-03-20T14:14:02.747Z,12.48
2023-03-20T14:17:27.836Z,12.75
2023-03-20T14:20:44.234Z,13.63
2023-03-20T14:24:04.956Z,11.58
2023-03-20T14:27:42.842Z,11.30
2023-03-20T14:30:51.717Z,11.73
2023-03-20T14:34:16.332Z,10.98
2023-03-20T14:37:53.346Z,10.83
2023-03-20T14:41:12.870Z,11.03
2023-03-20T14:44:38.770Z,11.68
2023-03-20T14:47:58.242Z,11.15
2023-03-20T14:51:32.286Z,11.65
2023-03-20T14:54:46.319Z,11.78
2023-03-20T14:57:59.147Z,12.23
2023-03-20T15:01:14.081Z,13.43
2023-03-20T15:04:43.882Z,14.88
2023-03-20T15:07:56.128Z,16.30
2023-03-20T15:11:13.567Z,15.98
2023-03-20T15:14:30.689Z,18.03
2023-03-20T15:17:47.907Z,20.90
2023-03-20T15:21:01.950Z,21.83
2023-03-20T15:24:23.152Z,17.83
2023-03-20T15:27:37.307Z,18.35
2023-03-20T15:30:53.652Z,22.08
2023-03-20T15:34:08.781Z,17.68
2023-03-20T15:37:25.890Z,16.78
2023-03-20T15:40:50.516Z,18.63
2023-03-20T15:43:56.813Z,14.78
2023-03-20T15:47:18.428Z,18.60
2023-03-20T15:50:30.743Z,20.20
2023-03-20T15:53:46.257Z,20.13
2023-03-20T15:57:02.430Z,21.60
2023-03-20T16:00:22.094Z,22.40
2023-03-20T16:03:38.343Z,23.83
2023-03-20T16:07:00.033Z,22.18
2023-03-20T16:10:22.975Z,20.80
2023-03-20T16:13:40.024Z,20.73
2023-03-20T16:16:56.429Z,19.93
2023-03-20T16:20:10.710Z,21.53
2023-03-20T16:23:34.019Z,20.08
2023-03-20T16:26:49.905Z,18.15
2023-03-20T16:30:03.114Z,19.13
2023-03-20T16:33:20.533Z,17.15
2023-03-20T16:36:39.026Z,18.38
2023-03-20T16:39:51.068Z,18.70
2023-03-20T16:43:05.592Z,17.65
2023-03-20T16:46:23.593Z,18.00
2023-03-20T16:50:23.645Z,17.98
2023-03-20T16:53:44.814Z,18.78
2023-03-20T16:57:04.038Z,17.65
2023-03-20T17:00:32.851Z,18.15
2023-03-20T17:03:52.866Z,18.65
2023-03-20T17:07:10.027Z,19.03
2023-03-20T17:10:30.813Z,18.50
2023-03-20T17:13:43.189Z,18.45
2023-03-20T17:16:59.536Z,18.33
2023-03-20T17:20:16.819Z,17.43
2023-03-20T17:23:30.038Z,19.40
2023-03-20T17:26:43.000Z,19.23
2023-03-20T17:29:56.307Z,19.80
2023-03-20T17:33:13.819Z,19.60
2023-03-20T17:36:30.656Z,19.90
2023-03-20T17:39:42.948Z,19.73
2023-03-20T17:42:55.667Z,21.30
2023-03-20T17:46:08.330Z,21.48
2023-03-20T17:49:25.115Z,20.85
2023-03-20T17:52:37.211Z,19.50
2023-03-20T17:55:49.484Z,20.40
2023-03-20T17:59:01.790Z,19.73
2023-03-20T18:02:14.861Z,22.33
2023-03-20T18:05:28.644Z,22.85
2023-03-20T18:08:40.968Z,24.70
2023-03-20T18:11:52.995Z,24.25
2023-03-20T18:15:05.680Z,25.85
2023-03-20T18:18:17.740Z,27.05
2023-03-20T18:21:30.087Z,24.15
2023-03-20T18:24:45.372Z,23.83
2023-03-20T18:27:57.848Z,24.28
2023-03-20T18:31:10.602Z,24.93
2023-03-20T18:34:23.321Z,24.53
2023-03-20T18:37:35.780Z,27.65
2023-03-20T18:40:48.224Z,26.10
2023-03-20T18:44:00.410Z,24.68
2023-03-20T18:47:13.580Z,29.10
2023-03-20T18:50:34.476Z,25.60
2023-03-20T18:53:47.160Z,23.65
2023-03-20T18:57:00.909Z,22.95
2023-03-20T19:00:25.608Z,23.68
2023-03-20T19:03:39.501Z,25.35
2023-03-20T19:06:51.790Z,22.95
2023-03-20T19:10:04.065Z,23.35
2023-03-20T19:13:18.824Z,22.73
2023-03-20T19:16:35.146Z,20.60
2023-03-20T19:19:47.717Z,27.53
2023-03-20T19:23:01.152Z,24.78
2023-03-20T19:26:21.917Z,19.68
2023-03-20T19:29:34.201Z,19.63
2023-03-20T19:32:46.418Z,20.20
2023-03-20T19:36:03.340Z,21.33
2023-03-20T19:39:16.876Z,22.55
2023-03-20T19:43:00.865Z,25.15
2023-03-20T19:45:45.698Z,27.43
2023-03-20T19:48:57.997Z,26.45
2023-03-20T19:52:10.880Z,26.68
2023-03-20T19:55:23.518Z,29.55
2023-03-20T19:58:35.748Z,30.13
2023-03-20T20:01:47.960Z,30.95
2023-03-20T20:05:00.573Z,29.83
2023-03-20T20:08:28.365Z,29.65
2023-03-20T20:11:29.290Z,29.93
2023-03-20T20:14:41.668Z,30.53
2023-03-20T20:17:54.993Z,30.13
2023-03-20T20:24:22.040Z,34.05
2023-03-20T20:27:34.716Z,35.00
2023-03-20T20:30:47.774Z,35.78
2023-03-20T20:34:51.096Z,38.83
2023-03-20T20:40:33.413Z,40.67
2023-03-20T20:44:14.476Z,40.23
2023-03-20T20:47:00.588Z,38.83
2023-03-20T20:50:15.194Z,41.10
2023-03-20T20:53:27.230Z,44.45
2023-03-20T20:56:39.417Z,45.75
2023-03-20T20:59:53.671Z,46.80
2023-03-20T21:03:06.082Z,45.58
2023-03-20T21:06:18.305Z,49.75
2023-03-20T21:09:30.485Z,47.78
2023-03-20T21:12:58.686Z,52.25
2023-03-20T21:16:06.438Z,53.50
2023-03-20T21:19:19.423Z,56.70
2023-03-20T21:22:34.112Z,59.15
2023-03-20T21:25:47.748Z,58.20
2023-03-20T21:29:00.628Z,59.68
2023-03-20T21:32:13.334Z,63.10
2023-03-20T21:35:26.590Z,60.00
2023-03-20T21:41:54.653Z,61.55
2023-03-20T21:49:23.977Z,60.20
2023-03-20T21:52:37.469Z,63.38
2023-03-20T21:55:40.995Z,65.93
2023-03-20T22:08:27.886Z,59.80
2023-03-20T22:15:03.843Z,60.08
2023-03-20T22:18:05.719Z,58.80
2023-03-20T22:27:56.620Z,58.18
2023-03-20T22:31:19.357Z,58.90
2023-03-20T22:37:52.550Z,53.90
2023-03-20T22:41:18.350Z,52.08
2023-03-20T22:44:34.014Z,49.78
2023-03-20T22:46:51.171Z,49.60
2023-03-20T22:50:03.564Z,48.55
2023-03-20T22:53:15.780Z,41.60
2023-03-20T22:56:28.358Z,40.45
2023-03-20T22:59:40.589Z,38.05
2023-03-20T23:02:54.934Z,34.03
2023-03-20T23:06:14.568Z,34.28
2023-03-20T23:09:27.230Z,32.43
2023-03-20T23:12:39.633Z,29.73
2023-03-20T23:15:52.980Z,28.83
2023-03-20T23:19:05.344Z,27.18
2023-03-20T23:22:17.749Z,27.60
2023-03-20T23:25:38.900Z,26.25
2023-03-20T23:28:46.345Z,25.28
2023-03-20T23:31:58.804Z,24.58
2023-03-20T23:35:13.123Z,24.38
2023-03-20T23:38:25.187Z,25.55
2023-03-20T23:42:03.958Z,23.85
2023-03-20T23:44:56.510Z,23.15
2023-03-20T23:48:05.759Z,20.95
2023-03-20T23:51:17.858Z,20.80
2023-03-20T23:54:29.885Z,21.88
2023-03-20T23:57:41.899Z,21.98
